createdAt,value
2023-03-14T00:01:21.567Z,99821.72
2023-03-14T00:03:49.530Z,99856.44
2023-03-14T00:06:18.876Z,99822.34
2023-03-14T00:08:48.500Z,99838.59
2023-03-14T00:11:19.369Z,99870.72
2023-03-14T00:13:51.358Z,99764.78
2023-03-14T00:16:20.831Z,99882.28
2023-03-14T00:18:48.843Z,99873.25
2023-03-14T00:21:17.319Z,99885.00
2023-03-14T00:23:46.714Z,99894.94
2023-03-14T00:26:17.532Z,99911.00
2023-03-14T00:28:46.244Z,99927.06
2023-03-14T00:31:16.818Z,99926.84
2023-03-14T00:33:47.420Z,99930.22
2023-03-14T00:36:18.395Z,99948.53
2023-03-14T00:38:48.874Z,99911.84
2023-03-14T00:41:19.995Z,99935.78
2023-03-14T00:43:48.583Z,99918.38
2023-03-14T00:46:16.638Z,99950.19
2023-03-14T00:48:48.433Z,99960.22
2023-03-14T00:51:16.597Z,99979.78
2023-03-14T00:53:47.156Z,99945.63
2023-03-14T00:56:15.501Z,99966.84
2023-03-14T00:58:43.953Z,99991.00
2023-03-14T01:01:17.737Z,100020.72
2023-03-14T01:03:47.341Z,100040.94
2023-03-14T01:06:20.163Z,100035.78
2023-03-14T01:08:50.584Z,100018.25
2023-03-14T01:11:31.456Z,100005.88
2023-03-14T01:14:00.175Z,99976.38
2023-03-14T01:16:32.591Z,99972.09
2023-03-14T01:19:04.311Z,99957.38
2023-03-14T01:21:35.175Z,100011.69
2023-03-14T01:24:05.455Z,99932.97
2023-03-14T01:26:35.824Z,99991.06
2023-03-14T01:29:05.870Z,100003.91
2023-03-14T01:31:36.691Z,100046.03
2023-03-14T01:34:05.367Z,100019.13
2023-03-14T01:36:33.360Z,100043.94
2023-03-14T01:39:03.004Z,100043.41
2023-03-14T01:41:31.124Z,100035.50
2023-03-14T01:44:00.415Z,100050.75
2023-03-14T01:46:47.289Z,100030.91
2023-03-14T01:49:29.975Z,100002.06
2023-03-14T01:52:33.015Z,99983.88
2023-03-14T01:55:06.968Z,99801.16
2023-03-14T01:57:40.475Z,100031.94
2023-03-14T02:00:15.627Z,100043.69
2023-03-14T02:02:57.064Z,100017.41
2023-03-14T02:05:36.233Z,99989.88
2023-03-14T02:08:14.572Z,99984.53
2023-03-14T02:10:51.388Z,100012.69
2023-03-14T02:13:30.960Z,100062.88
2023-03-14T02:16:17.943Z,100044.03
2023-03-14T02:19:07.344Z,100030.16
2023-03-14T02:22:13.287Z,100045.63
2023-03-14T02:25:25.993Z,100059.16
2023-03-14T02:27:54.945Z,100061.41
2023-03-14T02:30:25.665Z,100048.19
2023-03-14T02:33:05.293Z,99988.47
2023-03-14T02:35:42.668Z,100029.78
2023-03-14T02:38:32.447Z,100045.97
2023-03-14T02:41:02.961Z,100042.75
2023-03-14T02:43:34.767Z,100041.44
2023-03-14T02:46:07.494Z,100037.72
2023-03-14T02:48:49.431Z,100000.59
2023-03-14T02:51:18.970Z,100041.88
2023-03-14T02:53:48.850Z,100041.66
2023-03-14T02:56:16.977Z,100051.03
2023-03-14T02:58:46.314Z,100026.38
2023-03-14T03:01:23.876Z,99929.50
2023-03-14T03:03:51.794Z,99983.50
2023-03-14T03:06:21.349Z,100019.25
2023-03-14T03:08:49.094Z,100045.84
2023-03-14T03:11:17.575Z,100060.75
2023-03-14T03:13:45.421Z,99965.78
2023-03-14T03:16:17.108Z,100001.53
2023-03-14T03:18:44.889Z,100033.31
2023-03-14T03:21:12.771Z,100037.22
2023-03-14T03:23:40.591Z,100027.69
2023-03-14T03:26:11.961Z,100004.72
2023-03-14T03:28:39.833Z,99963.13
2023-03-14T03:31:13.322Z,100038.47
2023-03-14T03:33:42.364Z,100024.06
2023-03-14T03:36:11.063Z,100032.06
2023-03-14T03:38:40.658Z,100057.16
2023-03-14T03:41:08.933Z,100047.78
2023-03-14T03:43:37.144Z,100052.44
2023-03-14T03:46:08.451Z,100083.00
2023-03-14T03:48:39.304Z,100078.97
2023-03-14T03:51:07.910Z,100029.63
2023-03-14T03:53:37.040Z,100014.50
2023-03-14T03:56:10.531Z,100056.69
2023-03-14T03:58:39.997Z,100063.16
2023-03-14T04:01:09.079Z,100032.34
2023-03-14T04:03:40.141Z,100064.47
2023-03-14T04:06:14.197Z,100069.91
2023-03-14T04:08:45.201Z,100054.19
2023-03-14T04:11:23.925Z,100047.25
2023-03-14T04:14:06.239Z,100064.56
2023-03-14T04:16:35.713Z,100039.72
2023-03-14T04:19:10.725Z,100059.75
2023-03-14T04:21:41.685Z,100060.06
2023-03-14T04:24:13.010Z,100016.91
2023-03-14T04:26:43.034Z,100055.50
2023-03-14T04:29:13.512Z,100055.50
2023-03-14T04:31:43.429Z,100070.47
2023-03-14T04:34:11.577Z,100007.88
2023-03-14T04:36:46.011Z,100036.41
2023-03-14T04:39:21.081Z,100064.41
2023-03-14T04:41:57.580Z,100034.88
2023-03-14T04:44:25.482Z,100065.94
2023-03-14T04:46:54.779Z,100090.75
2023-03-14T04:49:22.700Z,100080.38
2023-03-14T04:51:54.158Z,100105.00
2023-03-14T04:54:23.589Z,100076.44
2023-03-14T04:56:55.840Z,100115.44
2023-03-14T04:59:23.699Z,100076.97
2023-03-14T05:01:54.236Z,100102.63
2023-03-14T05:04:45.024Z,100079.16
2023-03-14T05:07:26.396Z,100073.31
2023-03-14T05:10:17.494Z,100084.00
2023-03-14T05:12:56.187Z,100035.59
2023-03-14T05:16:10.731Z,100097.31
2023-03-14T05:19:03.009Z,100114.69
2023-03-14T05:21:49.480Z,100114.16
2023-03-14T05:24:43.349Z,100091.66
2023-03-14T05:27:24.445Z,100108.00
2023-03-14T05:30:04.273Z,100091.97
2023-03-14T05:32:38.888Z,100105.59
2023-03-14T05:35:39.415Z,100113.44
2023-03-14T05:38:25.250Z,100072.09
2023-03-14T05:41:04.537Z,100127.78
2023-03-14T05:43:52.304Z,100138.84
2023-03-14T05:46:45.921Z,100141.00
2023-03-14T05:49:30.013Z,100134.16
2023-03-14T05:52:09.459Z,100132.25
2023-03-14T05:54:57.500Z,100103.56
2023-03-14T05:57:45.518Z,100086.25
2023-03-14T06:00:36.838Z,100092.38
2023-03-14T06:03:19.777Z,100088.03
2023-03-14T06:05:52.070Z,100089.66
2023-03-14T06:08:21.673Z,99949.75
2023-03-14T06:10:49.520Z,100071.41
2023-03-14T06:13:17.656Z,100056.75
2023-03-14T06:15:46.562Z,100070.59
2023-03-14T06:18:15.395Z,99998.13
2023-03-14T06:20:44.627Z,100038.81
2023-03-14T06:23:16.694Z,100080.25
2023-03-14T06:25:44.613Z,100051.00
2023-03-14T06:28:12.418Z,100077.78
2023-03-14T06:30:40.722Z,100083.09
2023-03-14T06:33:11.579Z,100082.81
2023-03-14T06:35:39.440Z,100077.16
2023-03-14T06:38:07.358Z,100095.63
2023-03-14T06:40:35.260Z,100073.72
2023-03-14T06:43:13.227Z,100044.97
2023-03-14T06:45:43.596Z,100060.81
2023-03-14T06:48:11.516Z,100118.13
2023-03-14T06:50:45.901Z,100127.38
2023-03-14T06:53:14.638Z,100076.34
2023-03-14T06:55:47.433Z,100038.13
2023-03-14T06:58:18.441Z,100114.97
2023-03-14T07:00:47.176Z,100094.50
2023-03-14T07:03:21.293Z,100115.25
2023-03-14T07:05:51.046Z,100129.97
2023-03-14T07:08:18.918Z,100126.84
2023-03-14T07:10:46.874Z,100133.53
2023-03-14T07:13:14.899Z,100098.31
2023-03-14T07:15:58.563Z,100140.56
2023-03-14T07:18:26.546Z,100061.22
2023-03-14T07:20:54.492Z,100123.34
2023-03-14T07:23:22.448Z,100148.03
2023-03-14T07:25:55.015Z,100158.84
2023-03-14T07:28:25.290Z,100079.75
2023-03-14T07:31:00.130Z,100070.25
2023-03-14T07:33:32.688Z,100127.34
2023-03-14T07:36:01.439Z,100155.59
2023-03-14T07:38:31.228Z,100163.63
2023-03-14T07:41:18.039Z,100133.88
2023-03-14T07:44:04.303Z,100133.00
2023-03-14T07:46:32.201Z,100148.75
2023-03-14T07:48:59.990Z,100155.41
2023-03-14T07:51:27.956Z,100141.47
2023-03-14T07:53:55.838Z,100171.84
2023-03-14T07:56:23.592Z,100171.34
2023-03-14T07:58:51.333Z,100178.03
2023-03-14T08:01:19.362Z,100183.63
2023-03-14T08:03:47.217Z,100199.72
2023-03-14T08:06:15.063Z,100177.88
2023-03-14T08:08:43.581Z,100187.97
2023-03-14T08:11:11.661Z,100226.53
2023-03-14T08:13:41.030Z,100209.88
2023-03-14T08:16:09.995Z,100233.19
2023-03-14T08:18:38.291Z,100217.78
2023-03-14T08:21:06.365Z,100206.78
2023-03-14T08:23:34.040Z,100199.31
2023-03-14T08:26:01.822Z,100210.59
2023-03-14T08:28:31.803Z,100246.75
2023-03-14T08:31:00.051Z,100233.72
2023-03-14T08:33:29.697Z,100258.53
2023-03-14T08:36:01.296Z,100234.53
2023-03-14T08:38:30.846Z,100252.28
2023-03-14T08:41:01.757Z,100267.53
2023-03-14T08:43:32.358Z,100237.78
2023-03-14T08:46:02.284Z,100233.53
2023-03-14T08:48:31.523Z,100265.22
2023-03-14T08:51:13.935Z,100226.25
2023-03-14T08:53:43.195Z,100242.59
2023-03-14T08:56:12.486Z,100251.47
2023-03-14T08:58:40.483Z,100223.09
2023-03-14T09:01:10.734Z,100233.59
2023-03-14T09:03:39.351Z,100285.41
2023-03-14T09:06:09.966Z,100263.81
2023-03-14T09:08:39.417Z,100291.66
2023-03-14T09:11:10.695Z,100289.81
2023-03-14T09:13:38.603Z,100221.94
2023-03-14T09:16:07.454Z,100306.81
2023-03-14T09:18:37.150Z,100281.34
2023-03-14T09:21:05.474Z,100285.19
2023-03-14T09:23:34.051Z,100295.97
2023-03-14T09:26:02.217Z,100330.31
2023-03-14T09:28:29.917Z,100274.16
2023-03-14T09:30:57.682Z,100274.03
2023-03-14T09:33:25.547Z,100345.16
2023-03-14T09:35:53.534Z,100316.25
2023-03-14T09:38:21.863Z,100347.56
2023-03-14T09:40:50.585Z,100354.06
2023-03-14T09:43:19.597Z,100320.31
2023-03-14T09:45:49.912Z,100339.63
2023-03-14T09:48:21.705Z,100333.75
2023-03-14T09:50:56.627Z,100359.09
2023-03-14T09:53:41.277Z,100293.94
2023-03-14T09:56:24.176Z,100343.66
2023-03-14T09:59:06.045Z,100361.13
2023-03-14T10:01:35.008Z,100364.38
2023-03-14T10:04:11.616Z,100332.25
2023-03-14T10:06:39.440Z,100303.66
2023-03-14T10:09:07.275Z,100311.72
2023-03-14T10:11:34.953Z,100351.84
2023-03-14T10:14:07.896Z,100363.66
2023-03-14T10:16:41.658Z,100353.88
2023-03-14T10:19:15.373Z,100363.75
2023-03-14T10:21:45.651Z,100348.91
2023-03-14T10:24:51.736Z,100360.13
2023-03-14T10:27:29.767Z,100367.22
2023-03-14T10:30:07.942Z,100370.47
2023-03-14T10:32:38.901Z,100357.50
2023-03-14T10:35:20.278Z,100369.03
2023-03-14T10:38:02.743Z,100331.25
2023-03-14T10:40:38.939Z,100356.81
2023-03-14T10:43:14.858Z,100306.63
2023-03-14T10:45:46.309Z,100346.50
2023-03-14T10:48:33.400Z,100286.41
2023-03-14T10:51:04.438Z,100351.56
2023-03-14T10:53:48.051Z,100330.94
2023-03-14T10:56:21.479Z,100344.97
2023-03-14T10:58:54.517Z,100344.38
2023-03-14T11:01:35.152Z,100353.88
2023-03-14T11:04:15.150Z,100326.59
2023-03-14T11:06:51.161Z,100346.19
2023-03-14T11:09:33.758Z,100341.94
2023-03-14T11:12:32.509Z,100329.81
2023-03-14T11:15:06.981Z,100291.66
2023-03-14T11:18:00.058Z,100315.09
2023-03-14T11:20:59.771Z,100289.50
2023-03-14T11:23:57.467Z,100348.09
2023-03-14T11:26:43.841Z,100292.34
2023-03-14T11:29:27.089Z,100340.31
2023-03-14T11:32:00.172Z,100313.13
2023-03-14T11:34:40.497Z,100333.75
2023-03-14T11:37:14.534Z,100263.78
2023-03-14T11:39:49.043Z,100291.13
2023-03-14T11:42:18.650Z,100340.94
2023-03-14T11:44:50.527Z,100312.38
2023-03-14T11:47:41.969Z,100319.69
2023-03-14T11:50:28.346Z,100217.97
2023-03-14T11:53:03.139Z,100303.78
2023-03-14T11:55:35.613Z,100325.47
2023-03-14T11:58:46.515Z,100286.78
2023-03-14T12:01:17.718Z,100300.13
2023-03-14T12:04:00.330Z,100330.19
2023-03-14T12:06:37.293Z,100307.56
2023-03-14T12:09:07.155Z,100303.72
2023-03-14T12:12:04.857Z,100290.09
2023-03-14T12:14:39.138Z,100313.53
2023-03-14T12:17:20.027Z,100278.09
2023-03-14T12:19:48.931Z,100273.63
2023-03-14T12:22:44.805Z,100268.81
2023-03-14T12:25:12.502Z,100296.63
2023-03-14T12:27:48.505Z,100274.19
2023-03-14T12:30:42.208Z,100291.97
2023-03-14T12:33:13.169Z,100291.97
2023-03-14T12:35:46.577Z,100250.13
2023-03-14T12:38:17.724Z,100276.72
2023-03-14T12:41:08.435Z,100283.03
2023-03-14T12:43:38.343Z,100251.78
2023-03-14T12:46:18.614Z,100271.00
2023-03-14T12:49:02.828Z,100271.50
2023-03-14T12:51:39.774Z,100240.53
2023-03-14T12:54:30.979Z,100270.91
2023-03-14T12:57:11.750Z,100240.13
2023-03-14T12:59:47.944Z,100255.81
2023-03-14T13:02:38.487Z,100269.16
2023-03-14T13:05:12.261Z,100215.28
2023-03-14T13:07:41.598Z,100242.34
2023-03-14T13:12:56.599Z,100241.72
2023-03-14T13:15:42.136Z,100225.25
2023-03-14T13:18:24.997Z,100250.25
2023-03-14T13:21:05.171Z,100225.59
2023-03-14T13:23:37.604Z,100214.81
2023-03-14T13:26:14.680Z,100202.41
2023-03-14T13:28:42.450Z,100242.69
2023-03-14T13:31:28.367Z,100226.63
2023-03-14T13:34:08.266Z,100210.91
2023-03-14T13:36:37.714Z,100166.06
2023-03-14T13:39:13.928Z,100209.34
2023-03-14T13:41:43.121Z,100192.03
2023-03-14T13:44:18.801Z,100205.59
2023-03-14T13:46:47.011Z,100210.44
2023-03-14T13:49:24.259Z,100124.06
2023-03-14T13:51:52.396Z,100146.31
2023-03-14T13:54:22.362Z,100196.38
2023-03-14T13:57:00.977Z,100177.31
2023-03-14T13:59:31.786Z,100194.28
2023-03-14T14:02:04.945Z,100191.09
2023-03-14T14:04:38.088Z,100195.06
2023-03-14T14:07:19.526Z,100198.78
2023-03-14T14:09:50.616Z,100158.47
2023-03-14T14:12:30.827Z,100179.59
2023-03-14T14:15:29.600Z,100180.78
2023-03-14T14:18:01.508Z,100227.56
2023-03-14T14:20:33.637Z,100192.59
2023-03-14T14:23:08.856Z,100197.22
2023-03-14T14:25:37.963Z,100187.84
2023-03-14T14:28:26.573Z,100198.03
2023-03-14T14:31:09.667Z,100200.78
2023-03-14T14:33:47.731Z,100165.66
2023-03-14T14:36:19.165Z,100189.00
2023-03-14T14:39:20.522Z,100181.84
2023-03-14T14:41:53.515Z,100190.28
2023-03-14T14:44:35.524Z,100182.72
2023-03-14T14:47:04.765Z,100195.91
2023-03-14T14:49:34.935Z,100166.69
2023-03-14T14:52:21.909Z,100178.72
2023-03-14T14:54:58.552Z,100180.34
2023-03-14T14:57:31.345Z,100190.94
2023-03-14T15:00:08.262Z,100183.56
2023-03-14T15:02:46.348Z,100171.34
2023-03-14T15:05:17.264Z,100141.25
2023-03-14T15:07:45.849Z,100140.72
2023-03-14T15:10:19.317Z,100161.53
2023-03-14T15:12:48.471Z,100149.00
2023-03-14T15:15:18.910Z,100109.88
2023-03-14T15:17:49.586Z,100154.16
2023-03-14T15:20:19.346Z,100142.44
2023-03-14T15:22:48.062Z,100102.66
2023-03-14T15:25:40.103Z,100124.56
2023-03-14T15:28:04.169Z,100136.03
2023-03-14T15:30:32.019Z,100132.78
2023-03-14T15:33:00.189Z,100136.03
2023-03-14T15:35:28.190Z,100135.31
2023-03-14T15:37:56.260Z,100165.13
2023-03-14T15:40:25.928Z,100166.19
2023-03-14T15:42:54.028Z,100167.66
2023-03-14T15:45:21.733Z,100106.88
2023-03-14T15:47:50.693Z,100167.13
2023-03-14T15:50:20.214Z,100173.28
2023-03-14T15:52:48.065Z,100147.78
2023-03-14T15:55:15.957Z,100149.16
2023-03-14T15:57:47.052Z,100164.44
2023-03-14T16:00:19.067Z,100205.06
2023-03-14T16:02:53.553Z,100208.44
2023-03-14T16:05:22.695Z,100196.47
2023-03-14T16:07:50.459Z,100215.03
2023-03-14T16:10:19.657Z,100183.41
2023-03-14T16:12:48.890Z,100180.97
2023-03-14T16:15:17.007Z,100191.78
2023-03-14T16:17:44.980Z,100218.94
2023-03-14T16:20:13.230Z,100191.84
2023-03-14T16:22:41.044Z,100225.34
2023-03-14T16:25:09.526Z,100236.63
2023-03-14T16:27:37.390Z,100245.91
2023-03-14T16:30:05.884Z,100232.69
2023-03-14T16:32:33.769Z,100230.59
2023-03-14T16:35:01.674Z,100248.09
2023-03-14T16:37:29.673Z,100262.94
2023-03-14T16:40:11.771Z,100194.09
2023-03-14T16:43:05.149Z,100237.88
2023-03-14T16:45:29.331Z,100237.81
2023-03-14T16:47:57.252Z,100288.94
2023-03-14T16:50:25.161Z,100284.03
2023-03-14T16:52:55.441Z,100285.63
2023-03-14T16:55:23.415Z,100325.84
2023-03-14T16:57:51.256Z,100287.50
2023-03-14T17:00:19.741Z,100257.34
2023-03-14T17:02:48.048Z,100311.75
2023-03-14T17:05:15.886Z,100308.59
2023-03-14T17:07:44.047Z,100213.50
2023-03-14T17:10:12.834Z,100275.88
2023-03-14T17:12:40.554Z,100329.38
2023-03-14T17:15:12.443Z,100349.69
2023-03-14T17:17:40.320Z,100344.13
2023-03-14T17:20:09.453Z,100357.97
2023-03-14T17:22:37.599Z,100352.50
2023-03-14T17:25:05.954Z,100329.16
2023-03-14T17:27:36.191Z,100344.31
2023-03-14T17:30:05.221Z,100372.72
2023-03-14T17:32:33.069Z,100309.03
2023-03-14T17:35:01.088Z,100367.28
2023-03-14T17:37:28.989Z,100316.91
2023-03-14T17:39:57.101Z,100359.00
2023-03-14T17:42:24.707Z,100363.34
2023-03-14T17:44:53.953Z,100377.56
2023-03-14T17:47:21.737Z,100359.41
2023-03-14T17:49:50.071Z,100367.09
2023-03-14T17:52:17.979Z,100345.91
2023-03-14T17:54:45.759Z,100413.03
2023-03-14T17:57:13.553Z,100335.69
2023-03-14T17:59:44.450Z,100420.75
2023-03-14T18:02:13.522Z,100411.25
2023-03-14T18:04:41.812Z,100439.03
2023-03-14T18:07:12.954Z,100424.50
2023-03-14T18:09:41.514Z,100449.25
2023-03-14T18:12:09.304Z,100471.28
2023-03-14T18:14:40.201Z,100462.41
2023-03-14T18:17:11.445Z,100399.97
2023-03-14T18:19:42.696Z,100391.34
2023-03-14T18:22:11.525Z,100486.47
2023-03-14T18:24:39.388Z,100489.38
2023-03-14T18:27:07.227Z,100503.81
2023-03-14T18:29:38.184Z,100474.81
2023-03-14T18:32:06.526Z,100456.13
2023-03-14T18:34:34.652Z,100514.16
2023-03-14T18:37:02.830Z,100511.13
2023-03-14T18:39:30.888Z,100494.53
2023-03-14T18:41:58.634Z,100511.59
2023-03-14T18:44:26.367Z,100387.13
2023-03-14T18:46:54.293Z,100504.31
2023-03-14T18:49:22.105Z,100537.59
2023-03-14T18:51:51.147Z,100500.19
2023-03-14T18:54:19.161Z,100548.00
2023-03-14T18:56:46.970Z,100544.75
2023-03-14T18:59:14.796Z,100551.31
2023-03-14T19:01:44.218Z,100558.19
2023-03-14T19:04:12.205Z,100567.78
2023-03-14T19:06:42.015Z,100568.91
2023-03-14T19:09:15.441Z,100576.78
2023-03-14T19:11:43.902Z,100486.19
2023-03-14T19:14:16.298Z,100502.66
2023-03-14T19:16:44.667Z,100477.16
2023-03-14T19:19:13.642Z,100546.16
2023-03-14T19:21:42.882Z,100558.84
2023-03-14T19:24:17.545Z,100574.53
2023-03-14T19:26:45.626Z,100556.91
2023-03-14T19:29:13.698Z,100575.56
2023-03-14T19:31:41.640Z,100586.66
2023-03-14T19:34:09.464Z,100541.91
2023-03-14T19:36:38.770Z,100607.81
2023-03-14T19:39:08.338Z,100600.63
2023-03-14T19:41:36.288Z,100621.44
2023-03-14T19:44:04.109Z,100629.63
2023-03-14T19:46:36.367Z,100616.19
2023-03-14T19:49:06.269Z,100598.13
2023-03-14T19:51:43.917Z,100641.34
2023-03-14T19:54:12.064Z,100646.81
2023-03-14T19:56:40.592Z,100638.44
2023-03-14T19:59:08.453Z,100633.66
2023-03-14T20:01:37.073Z,100634.16
2023-03-14T20:04:05.069Z,100633.84
2023-03-14T20:06:34.722Z,100646.13
2023-03-14T20:09:04.466Z,100618.03
2023-03-14T20:11:32.953Z,100622.31
2023-03-14T20:14:00.864Z,100627.16
2023-03-14T20:16:28.904Z,100642.03
2023-03-14T20:18:57.688Z,100655.31
2023-03-14T20:21:27.188Z,100632.91
2023-03-14T20:23:55.369Z,100643.97
2023-03-14T20:26:23.357Z,100628.69
2023-03-14T20:28:51.364Z,100664.09
2023-03-14T20:31:19.767Z,100628.44
2023-03-14T20:33:49.232Z,100637.75
2023-03-14T20:36:18.430Z,100675.00
2023-03-14T20:38:46.218Z,100618.66
2023-03-14T20:41:14.078Z,100642.13
2023-03-14T20:43:41.918Z,100665.06
2023-03-14T20:46:14.252Z,100632.94
2023-03-14T20:48:42.331Z,100673.97
2023-03-14T20:51:12.648Z,100680.84
2023-03-14T20:53:42.142Z,100673.78
2023-03-14T20:56:09.813Z,100641.03
2023-03-14T20:58:37.486Z,100680.63
2023-03-14T21:01:05.440Z,100652.81
2023-03-14T21:03:33.197Z,100593.22
2023-03-14T21:06:00.974Z,100670.47
2023-03-14T21:08:28.760Z,100643.75
2023-03-14T21:10:56.494Z,100676.44
2023-03-14T21:13:25.170Z,100670.78
2023-03-14T21:15:54.280Z,100660.25
2023-03-14T21:18:23.397Z,100658.66
2023-03-14T21:20:54.494Z,100652.19
2023-03-14T21:23:26.820Z,100666.75
2023-03-14T21:25:56.746Z,100674.03
2023-03-14T21:28:25.274Z,100664.78
2023-03-14T21:30:54.164Z,100679.75
2023-03-14T21:33:21.961Z,100656.22
2023-03-14T21:35:51.947Z,100631.31
2023-03-14T21:38:21.288Z,100649.88
2023-03-14T21:40:57.172Z,100641.97
2023-03-14T21:43:26.617Z,100678.28
2023-03-14T21:45:54.599Z,100662.84
2023-03-14T21:48:22.571Z,100670.66
2023-03-14T21:50:50.360Z,100657.94
2023-03-14T21:53:18.375Z,100670.47
2023-03-14T21:55:47.248Z,100679.50
2023-03-14T21:58:15.576Z,100645.03
2023-03-14T22:00:50.851Z,100628.16
2023-03-14T22:03:23.688Z,100671.91
2023-03-14T22:05:52.577Z,100680.09
2023-03-14T22:08:22.803Z,100667.56
2023-03-14T22:10:52.901Z,100672.50
2023-03-14T22:13:22.478Z,100671.78
2023-03-14T22:15:51.707Z,100620.66
2023-03-14T22:18:19.934Z,100599.25
2023-03-14T22:20:47.961Z,100671.78
2023-03-14T22:23:16.218Z,100645.38
2023-03-14T22:25:51.567Z,100602.28
2023-03-14T22:28:22.841Z,100663.09
2023-03-14T22:30:51.578Z,100669.56
2023-03-14T22:33:19.645Z,100668.75
2023-03-14T22:35:52.396Z,100616.88
2023-03-14T22:38:20.455Z,100584.69
2023-03-14T22:40:48.693Z,100628.00
2023-03-14T22:43:17.646Z,100669.66
2023-03-14T22:45:45.780Z,100658.00
2023-03-14T22:48:15.573Z,100629.38
2023-03-14T22:50:43.299Z,100600.81
2023-03-14T22:53:11.352Z,100653.06
2023-03-14T22:55:41.016Z,100660.13
2023-03-14T22:58:11.024Z,100671.38
2023-03-14T23:00:39.516Z,100656.22
2023-03-14T23:03:07.174Z,100672.50
2023-03-14T23:05:34.960Z,100673.09
2023-03-14T23:08:03.558Z,100679.88
2023-03-14T23:10:33.294Z,100615.81
2023-03-14T23:13:05.786Z,100685.63
2023-03-14T23:15:34.661Z,100682.38
2023-03-14T23:18:03.924Z,100651.56
2023-03-14T23:20:31.812Z,100680.75
2023-03-14T23:22:59.747Z,100675.88
2023-03-14T23:25:28.796Z,100642.34
2023-03-14T23:27:58.078Z,100670.97
2023-03-14T23:30:25.865Z,100660.06
2023-03-14T23:32:53.833Z,100643.69
2023-03-14T23:35:21.501Z,100589.34
2023-03-14T23:37:50.112Z,100648.91
2023-03-14T23:40:18.254Z,100648.97
2023-03-14T23:42:48.468Z,100628.97
2023-03-14T23:45:16.505Z,100672.78
2023-03-14T23:47:44.295Z,100646.31
2023-03-14T23:50:12.115Z,100674.97
2023-03-14T23:52:39.880Z,100599.78
2023-03-14T23:55:07.905Z,100658.63
2023-03-14T23:57:35.706Z,100619.28
